Time;durP1;ratioP1;P1;durP2;ratioP2;P2;SDS_P1;SDS_P2;PMS_P1;PMS_P2;Temp;Humidity;BMP_temperature;BMP_pressure;BME280_temperature;BME280_humidity;BME280_pressure;Samples;Min_cycle;Max_cycle;Signal;HPM_P1;HPM_P2
2022/12/08 00:00:48;;;;;;;1.02;0.45;;;21.00;40.80;;;;;;4995450;28;20498;-61
2022/12/08 00:03:14;;;;;;;0.93;0.47;;;21.00;40.70;;;;;;4994806;28;20049;-61
2022/12/08 00:11:18;;;;;;;1.35;0.40;;;20.90;40.70;;;;;;4995066;28;20112;-58
2022/12/08 00:13:45;;;;;;;0.52;0.40;;;20.90;40.70;;;;;;4996520;28;20046;-60
2022/12/08 00:16:11;;;;;;;0.70;0.30;;;20.80;40.60;;;;;;4999617;28;20050;-61
2022/12/08 00:18:37;;;;;;;0.55;0.40;;;20.80;40.60;;;;;;4994237;28;20101;-59
2022/12/08 00:21:03;;;;;;;1.25;0.38;;;20.80;40.60;;;;;;4995936;28;20112;-61
2022/12/08 00:23:29;;;;;;;0.63;0.43;;;20.80;40.60;;;;;;4994897;28;20038;-60
2022/12/08 00:25:54;;;;;;;0.70;0.50;;;20.70;40.50;;;;;;4995377;28;20473;-61
2022/12/08 00:28:20;;;;;;;1.15;0.50;;;20.70;40.60;;;;;;4992829;28;20640;-60
2022/12/08 00:30:46;;;;;;;1.02;0.52;;;20.70;40.50;;;;;;4992970;28;20073;-61
2022/12/08 00:33:11;;;;;;;0.30;0.30;;;20.70;40.50;;;;;;4995140;28;20393;-60
2022/12/08 00:35:37;;;;;;;1.20;0.70;;;20.70;40.60;;;;;;4994208;28;20038;-61
2022/12/08 00:38:03;;;;;;;0.95;0.50;;;20.70;40.60;;;;;;4979573;28;20054;-60
2022/12/08 00:40:29;;;;;;;0.55;0.50;;;20.60;40.50;;;;;;4992237;28;20615;-61
2022/12/08 00:42:55;;;;;;;0.68;0.50;;;20.60;40.50;;;;;;4994776;28;20600;-61
2022/12/08 00:45:20;;;;;;;1.73;0.50;;;20.60;40.50;;;;;;4994188;28;20054;-60
2022/12/08 00:47:46;;;;;;;0.57;0.45;;;20.60;40.50;;;;;;4993244;28;20050;-60
2022/12/08 00:50:12;;;;;;;0.95;0.70;;;20.60;40.50;;;;;;4992587;28;20045;-61
2022/12/08 00:52:37;;;;;;;1.23;0.50;;;20.60;40.60;;;;;;4996172;28;20038;-60
2022/12/08 00:55:05;;;;;;;0.85;0.50;;;20.50;40.50;;;;;;4992793;28;20569;-61
2022/12/08 00:57:31;;;;;;;1.13;0.40;;;20.50;40.50;;;;;;4993859;28;20037;-60
2022/12/08 00:59:56;;;;;;;0.73;0.50;;;20.50;40.50;;;;;;4992138;28;20440;-60
2022/12/08 01:02:23;;;;;;;1.00;0.68;;;20.50;40.50;;;;;;4995502;28;20046;-60
2022/12/08 01:04:49;;;;;;;1.58;0.60;;;20.50;40.50;;;;;;4992850;28;20050;-61
2022/12/08 01:07:15;;;;;;;0.60;0.50;;;20.40;40.50;;;;;;4994779;28;20045;-60
2022/12/08 01:09:41;;;;;;;0.82;0.43;;;20.40;40.50;;;;;;4994443;28;20381;-60
2022/12/08 01:12:06;;;;;;;1.45;0.60;;;20.40;40.50;;;;;;4994228;28;20034;-61
2022/12/08 01:14:32;;;;;;;1.90;0.70;;;20.40;40.50;;;;;;4993829;28;20058;-61
2022/12/08 01:16:58;;;;;;;1.13;0.60;;;20.40;40.50;;;;;;4994746;28;20390;-61
2022/12/08 01:19:24;;;;;;;0.90;0.50;;;20.30;40.50;;;;;;4992060;28;20034;-60
2022/12/08 01:21:49;;;;;;;0.55;0.40;;;20.30;40.50;;;;;;4993562;28;20039;-60
2022/12/08 01:24:20;;;;;;;0.82;0.60;;;20.30;40.60;;;;;;4993323;28;20042;-60
2022/12/08 01:26:46;;;;;;;1.50;0.73;;;20.30;40.60;;;;;;4996188;28;20483;-59
2022/12/08 01:29:12;;;;;;;1.45;0.50;;;20.30;40.60;;;;;;4988472;28;20041;-59
2022/12/08 01:31:38;;;;;;;1.10;0.55;;;20.20;40.60;;;;;;4992624;28;20045;-61
2022/12/08 01:34:06;;;;;;;0.70;0.55;;;20.20;40.60;;;;;;4990966;28;20046;-61
2022/12/08 01:36:35;;;;;;;0.75;0.50;;;20.20;40.60;;;;;;4992674;28;20120;-60
2022/12/08 01:39:04;;;;;;;1.65;0.47;;;20.20;40.60;;;;;;4994561;28;20537;-60
2022/12/08 01:41:33;;;;;;;0.40;0.30;;;20.20;40.60;;;;;;4998943;28;20033;-60
2022/12/08 01:44:09;;;;;;;1.50;0.60;;;20.20;40.60;;;;;;4992807;28;20054;-61
2022/12/08 01:46:37;;;;;;;0.70;0.60;;;20.20;40.60;;;;;;4993171;28;20077;-59
2022/12/08 01:49:18;;;;;;;0.90;0.70;;;20.10;40.60;;;;;;4991982;28;20104;-61
2022/12/08 01:51:56;;;;;;;0.82;0.47;;;20.10;40.70;;;;;;4992117;28;20050;-61
2022/12/08 01:54:27;;;;;;;0.90;0.50;;;20.10;40.70;;;;;;4983173;28;20050;-60
2022/12/08 01:57:15;;;;;;;0.85;0.63;;;20.10;40.70;;;;;;4991586;28;20034;-60
2022/12/08 01:59:47;;;;;;;0.40;0.40;;;20.10;41.40;;;;;;4990261;28;20042;-60
2022/12/08 02:02:13;;;;;;;0.90;0.60;;;20.10;40.70;;;;;;4989851;28;20034;-59
2022/12/08 02:04:39;;;;;;;0.52;0.52;;;20.00;40.70;;;;;;4989178;28;20515;-61
2022/12/08 02:07:07;;;;;;;1.17;0.50;;;20.10;40.70;;;;;;4989184;28;20140;-60
2022/12/08 02:09:34;;;;;;;0.75;0.70;;;20.10;40.70;;;;;;4990324;28;20157;-61
2022/12/08 02:12:00;;;;;;;0.50;0.50;;;20.00;40.70;;;;;;4991374;28;20069;-60
2022/12/08 02:14:25;;;;;;;1.30;0.82;;;20.00;40.70;;;;;;4991640;28;20054;-60
2022/12/08 02:17:21;;;;;;;0.40;0.40;;;20.00;40.60;;;;;;4992091;28;21185;-60
2022/12/08 02:20:05;;;;;;;1.23;0.50;;;20.00;40.60;;;;;;4992590;28;20041;-61
2022/12/08 02:22:44;;;;;;;0.77;0.50;;;20.00;41.50;;;;;;4991026;28;20046;-60
2022/12/08 02:25:15;;;;;;;1.17;0.60;;;20.00;40.70;;;;;;4993318;28;20076;-60
2022/12/08 02:28:06;;;;;;;0.80;0.50;;;19.90;40.70;;;;;;4991911;28;20046;-60
2022/12/08 02:31:01;;;;;;;0.43;0.43;;;19.90;40.70;;;;;;4975107;28;20042;-59
2022/12/08 02:34:02;;;;;;;0.52;0.40;;;19.90;40.80;;;;;;4997400;28;20052;-61
2022/12/08 02:36:42;;;;;;;0.30;0.30;;;19.90;40.80;;;;;;5007525;28;20084;-58
2022/12/08 02:39:32;;;;;;;0.85;0.47;;;19.90;40.90;;;;;;4991353;28;20033;-60
2022/12/08 02:42:16;;;;;;;0.57;0.50;;;19.90;40.90;;;;;;4991684;28;20477;-59
2022/12/08 02:44:51;;;;;;;0.70;0.50;;;19.90;40.90;;;;;;4994466;28;20072;-61
2022/12/08 02:47:22;;;;;;;0.95;0.50;;;19.90;40.90;;;;;;4992765;28;20045;-61
2022/12/08 02:49:47;;;;;;;;;;;19.80;40.80;;;;;;4990699;28;20113;-61
2022/12/08 02:52:16;;;;;;;1.55;0.52;;;19.80;40.80;;;;;;4990258;28;19928;-59
2022/12/08 02:54:49;;;;;;;0.70;0.52;;;19.70;41.00;;;;;;4991477;28;20042;-61
2022/12/08 02:57:45;;;;;;;0.50;0.50;;;19.80;40.90;;;;;;4992539;28;20046;-61
2022/12/08 03:00:23;;;;;;;0.57;0.40;;;19.80;40.90;;;;;;4989105;28;20129;-61
2022/12/08 03:03:00;;;;;;;1.13;0.60;;;19.80;40.90;;;;;;4990593;28;20033;-60
2022/12/08 03:05:54;;;;;;;0.52;0.52;;;19.70;40.90;;;;;;4991479;28;20070;-60
2022/12/08 03:08:41;;;;;;;1.15;0.63;;;19.80;40.80;;;;;;4989539;28;20038;-61
2022/12/08 03:11:25;;;;;;;1.38;0.65;;;19.70;40.90;;;;;;4991096;28;20038;-61
2022/12/08 03:13:52;;;;;;;0.82;0.60;;;19.70;40.80;;;;;;4990907;28;20608;-61
2022/12/08 03:16:29;;;;;;;1.65;0.60;;;19.70;40.90;;;;;;4992842;28;20089;-60
2022/12/08 03:19:04;;;;;;;0.82;0.43;;;19.70;40.80;;;;;;4989209;28;20035;-61
2022/12/08 03:21:34;;;;;;;0.40;0.40;;;19.70;40.70;;;;;;4990881;28;20034;-60
2022/12/08 03:24:02;;;;;;;0.65;0.50;;;19.70;40.70;;;;;;4988197;28;20530;-59
2022/12/08 03:26:58;;;;;;;0.50;0.50;;;19.70;40.70;;;;;;4991619;28;20096;-60
2022/12/08 03:29:24;;;;;;;0.50;0.40;;;19.70;40.70;;;;;;4990957;28;20042;-60
2022/12/08 03:31:56;;;;;;;0.63;0.60;;;19.70;40.70;;;;;;4990351;28;20033;-59
2022/12/08 03:34:26;;;;;;;1.02;0.50;;;19.70;40.70;;;;;;5003473;28;20045;-60
2022/12/08 03:36:53;;;;;;;0.40;0.40;;;19.70;40.70;;;;;;4993206;28;20048;-61
2022/12/08 03:39:19;;;;;;;0.60;0.50;;;19.70;40.60;;;;;;4976211;28;20478;-60
2022/12/08 03:41:46;;;;;;;0.68;0.47;;;19.70;40.70;;;;;;4991517;28;20034;-61
2022/12/08 03:44:11;;;;;;;0.77;0.50;;;19.60;40.60;;;;;;4990084;28;20525;-60
2022/12/08 03:46:37;;;;;;;0.55;0.50;;;19.60;40.60;;;;;;4991834;28;20046;-61
2022/12/08 03:49:04;;;;;;;1.70;0.60;;;19.60;40.60;;;;;;4990304;28;20046;-60
2022/12/08 03:51:30;;;;;;;0.60;0.60;;;19.60;40.60;;;;;;4991824;28;20054;-60
2022/12/08 03:53:55;;;;;;;0.85;0.43;;;19.60;40.50;;;;;;4990267;28;20371;-60
2022/12/08 03:56:23;;;;;;;1.15;0.50;;;19.60;40.60;;;;;;4991247;28;20559;-61
2022/12/08 03:58:49;;;;;;;0.60;0.60;;;19.60;40.50;;;;;;4993477;28;20042;-60
2022/12/08 04:01:15;;;;;;;1.17;0.73;;;19.60;40.60;;;;;;4990893;28;20038;-57
2022/12/08 04:03:40;;;;;;;0.50;0.50;;;19.60;40.60;;;;;;4990640;28;20073;-60
2022/12/08 04:06:06;;;;;;;0.60;0.32;;;19.60;40.60;;;;;;4991519;28;20043;-60
2022/12/08 04:08:32;;;;;;;1.02;0.55;;;19.50;40.50;;;;;;4991201;28;20034;-60
2022/12/08 04:10:58;;;;;;;0.73;0.47;;;19.50;40.50;;;;;;4989927;28;20038;-60
2022/12/08 04:13:23;;;;;;;1.33;0.50;;;19.60;41.30;;;;;;4989359;28;20046;-61
2022/12/08 04:15:49;;;;;;;0.98;0.60;;;19.50;41.10;;;;;;4993503;28;20078;-61
2022/12/08 04:18:15;;;;;;;0.77;0.45;;;19.50;40.50;;;;;;4990666;28;20100;-60
2022/12/08 04:20:42;;;;;;;0.85;0.50;;;19.50;40.40;;;;;;4994208;28;20049;-57
2022/12/08 04:23:08;;;;;;;0.82;0.50;;;19.50;40.50;;;;;;4991033;28;20045;-57
2022/12/08 04:25:35;;;;;;;0.45;0.40;;;19.50;40.40;;;;;;4993872;28;20046;-60
2022/12/08 04:28:02;;;;;;;0.60;0.50;;;19.50;40.40;;;;;;4994916;28;20057;-61
2022/12/08 04:30:27;;;;;;;0.93;0.40;;;19.50;40.50;;;;;;4999157;28;20125;-60
2022/12/08 04:32:53;;;;;;;0.55;0.35;;;19.50;40.50;;;;;;4993492;28;20052;-61
2022/12/08 04:35:19;;;;;;;0.47;0.43;;;19.50;40.50;;;;;;4994789;28;20046;-61
2022/12/08 04:37:44;;;;;;;0.30;0.30;;;19.50;40.50;;;;;;4994820;28;20085;-61
2022/12/08 04:40:11;;;;;;;1.02;0.63;;;19.40;41.20;;;;;;4993781;28;20486;-59
2022/12/08 04:42:37;;;;;;;0.73;0.30;;;19.40;40.50;;;;;;4994784;28;20397;-60
2022/12/08 04:45:04;;;;;;;0.30;0.30;;;19.40;40.50;;;;;;4991860;28;20050;-64
2022/12/08 04:47:29;;;;;;;0.45;0.30;;;19.40;40.50;;;;;;4992345;28;20042;-60
2022/12/08 04:49:55;;;;;;;0.65;0.30;;;19.40;40.50;;;;;;4992887;28;20465;-60
2022/12/08 04:52:21;;;;;;;0.70;0.40;;;19.40;40.50;;;;;;4994231;28;20100;-60
2022/12/08 04:54:47;;;;;;;0.60;0.32;;;19.40;40.50;;;;;;4993741;28;20053;-60
2022/12/08 04:57:12;;;;;;;0.52;0.30;;;19.40;40.50;;;;;;4994209;28;20037;-60
2022/12/08 04:59:38;;;;;;;0.52;0.40;;;19.40;40.50;;;;;;4992988;28;20038;-60
2022/12/08 05:02:04;;;;;;;0.43;0.32;;;19.40;40.50;;;;;;4994089;28;20088;-61
2022/12/08 05:04:30;;;;;;;0.50;0.40;;;19.40;40.50;;;;;;4994000;28;20114;-61
2022/12/08 05:06:55;;;;;;;0.20;0.20;;;19.40;40.50;;;;;;4994460;28;20042;-60
2022/12/08 05:09:21;;;;;;;0.68;0.30;;;19.30;40.40;;;;;;4994869;28;20067;-60
2022/12/08 05:11:47;;;;;;;0.20;0.20;;;19.30;40.40;;;;;;4992948;28;20125;-60
2022/12/08 05:14:14;;;;;;;0.50;0.40;;;19.30;40.40;;;;;;4990916;28;20897;-60
2022/12/08 05:16:40;;;;;;;0.52;0.40;;;19.30;40.50;;;;;;4995902;28;20045;-61
2022/12/08 05:19:06;;;;;;;0.55;0.40;;;19.30;40.50;;;;;;4994145;28;20042;-60
2022/12/08 05:21:32;;;;;;;0.40;0.32;;;19.30;40.50;;;;;;4992171;28;20041;-61
2022/12/08 05:23:58;;;;;;;0.40;0.30;;;19.30;40.50;;;;;;4991614;28;20414;-61
2022/12/08 05:26:23;;;;;;;0.28;0.28;;;19.30;40.50;;;;;;4993525;28;20042;-60
2022/12/08 05:28:49;;;;;;;0.60;0.35;;;19.30;40.50;;;;;;4992646;28;20376;-61
2022/12/08 05:31:16;;;;;;;1.13;0.20;;;19.30;40.50;;;;;;4994691;28;20501;-61
2022/12/08 05:33:43;;;;;;;0.47;0.47;;;19.20;40.40;;;;;;4994001;28;20876;-61
2022/12/08 05:36:11;;;;;;;0.52;0.30;;;19.30;40.50;;;;;;4990900;28;20647;-60
2022/12/08 05:38:37;;;;;;;0.47;0.30;;;19.30;40.60;;;;;;4998311;28;20694;-60
2022/12/08 05:41:04;;;;;;;0.90;0.43;;;19.30;40.60;;;;;;4993382;28;20031;-60
2022/12/08 05:43:30;;;;;;;0.57;0.30;;;19.20;40.50;;;;;;4991886;28;20057;-60
2022/12/08 05:45:55;;;;;;;0.35;0.20;;;19.20;40.50;;;;;;4993011;28;20442;-61
2022/12/08 05:48:21;;;;;;;0.57;0.30;;;19.20;40.50;;;;;;4992916;28;20474;-60
2022/12/08 05:50:47;;;;;;;1.20;0.40;;;19.20;40.50;;;;;;4991462;28;20041;-61
2022/12/08 05:53:14;;;;;;;0.85;0.30;;;19.20;40.50;;;;;;4993825;28;20038;-60
2022/12/08 05:55:39;;;;;;;0.20;0.20;;;19.20;40.50;;;;;;4992942;28;20046;-60
2022/12/08 05:58:06;;;;;;;0.20;0.20;;;19.20;40.60;;;;;;4993789;28;20044;-60
2022/12/08 06:00:33;;;;;;;0.30;0.20;;;19.20;40.60;;;;;;4994094;28;20060;-60
2022/12/08 06:02:59;;;;;;;0.90;0.28;;;19.20;40.70;;;;;;4992331;28;20041;-60
2022/12/08 06:05:25;;;;;;;1.27;0.40;;;19.20;40.70;;;;;;4990769;28;20501;-59
2022/12/08 06:07:51;;;;;;;0.57;0.30;;;19.20;40.60;;;;;;4990539;28;20126;-59
2022/12/08 06:10:17;;;;;;;0.75;0.25;;;19.10;40.60;;;;;;4992825;28;20718;-60
2022/12/08 06:12:42;;;;;;;1.75;0.45;;;19.10;40.70;;;;;;4994167;28;20038;-60
2022/12/08 06:15:08;;;;;;;0.47;0.20;;;19.10;40.60;;;;;;4991051;28;20038;-58
2022/12/08 06:17:34;;;;;;;0.20;0.20;;;19.10;40.60;;;;;;4994008;28;20173;-61
2022/12/08 06:20:00;;;;;;;0.30;0.20;;;19.10;40.60;;;;;;4991498;28;20133;-61
2022/12/08 06:22:25;;;;;;;1.38;0.50;;;19.10;40.70;;;;;;4992600;28;20042;-60
2022/12/08 06:24:51;;;;;;;0.47;0.20;;;19.10;40.60;;;;;;4989613;28;20056;-61
2022/12/08 06:27:17;;;;;;;0.85;0.30;;;19.10;40.60;;;;;;4992486;28;20076;-59
2022/12/08 06:29:42;;;;;;;0.57;0.30;;;19.10;40.70;;;;;;4990923;28;20608;-60
2022/12/08 06:32:08;;;;;;;0.20;0.20;;;19.10;40.60;;;;;;4991587;28;20042;-61
2022/12/08 06:34:33;;;;;;;0.55;0.20;;;19.10;40.60;;;;;;4991883;28;20132;-61
2022/12/08 06:36:59;;;;;;;0.28;0.20;;;19.10;40.60;;;;;;4991612;28;20096;-59
2022/12/08 06:39:24;;;;;;;1.88;0.30;;;19.10;40.60;;;;;;4992436;28;20069;-60
2022/12/08 06:44:35;;;;;;;0.25;0.17;;;19.10;40.60;;;;;;4992123;28;20168;-60
2022/12/08 06:47:01;;;;;;;0.50;0.35;;;19.00;40.60;;;;;;4992922;28;20046;-59
2022/12/08 06:49:26;;;;;;;0.68;0.20;;;19.00;41.40;;;;;;4991908;28;20044;-60
2022/12/08 06:51:52;;;;;;;0.20;0.20;;;19.00;40.60;;;;;;4992448;28;20605;-60
2022/12/08 06:54:18;;;;;;;0.10;0.10;;;19.00;40.60;;;;;;4991819;28;20033;-60
2022/12/08 06:56:43;;;;;;;0.20;0.20;;;19.00;40.60;;;;;;4990768;28;20164;-60
2022/12/08 06:59:09;;;;;;;0.20;0.20;;;19.00;40.60;;;;;;4990780;28;20124;-61
2022/12/08 07:01:35;;;;;;;0.85;0.35;;;19.00;40.70;;;;;;4993718;28;20434;-60
2022/12/08 07:04:00;;;;;;;0.50;0.38;;;19.00;40.60;;;;;;4991622;28;20477;-61
2022/12/08 07:06:26;;;;;;;0.40;0.10;;;19.00;40.60;;;;;;4990622;28;20517;-61
2022/12/08 07:08:52;;;;;;;0.28;0.20;;;19.00;40.60;;;;;;4991950;28;20138;-61
2022/12/08 07:11:18;;;;;;;0.88;0.20;;;19.00;40.60;;;;;;4992609;28;20042;-61
2022/12/08 07:13:43;;;;;;;0.20;0.20;;;19.00;41.40;;;;;;4991723;28;20042;-60
2022/12/08 07:16:11;;;;;;;0.30;0.30;;;19.00;40.60;;;;;;4992971;28;20100;-60
2022/12/08 07:18:38;;;;;;;0.90;0.30;;;19.00;40.60;;;;;;4990952;28;20026;-61
2022/12/08 07:21:05;;;;;;;0.90;0.30;;;18.90;40.60;;;;;;4991220;28;20134;-60
2022/12/08 07:23:31;;;;;;;0.85;0.13;;;18.90;40.50;;;;;;4990316;28;20531;-60
2022/12/08 07:26:01;;;;;;;0.40;0.20;;;18.90;40.60;;;;;;4990958;28;20050;-61
2022/12/08 07:28:28;;;;;;;0.47;0.30;;;18.90;40.60;;;;;;4991923;28;20093;-60
2022/12/08 07:30:54;;;;;;;0.32;0.30;;;18.90;40.60;;;;;;4990016;28;20042;-59
2022/12/08 07:33:19;;;;;;;0.20;0.20;;;18.90;40.60;;;;;;4992012;28;20038;-59
2022/12/08 07:36:00;;;;;;;0.40;0.20;;;18.90;40.60;;;;;;4992096;28;20144;-60
2022/12/08 07:38:26;;;;;;;0.10;0.10;;;18.90;40.60;;;;;;4991741;28;20546;-60
2022/12/08 07:40:52;;;;;;;0.57;0.30;;;18.80;40.60;;;;;;4990849;28;20037;-59
2022/12/08 07:43:19;;;;;;;0.40;0.20;;;18.80;40.60;;;;;;4990005;28;20085;-60
2022/12/08 07:45:45;;;;;;;0.20;0.20;;;18.80;40.60;;;;;;4991685;28;20054;-60
2022/12/08 07:48:12;;;;;;;0.30;0.25;;;18.80;40.60;;;;;;4991701;28;20137;-60
2022/12/08 07:50:38;;;;;;;0.30;0.30;;;18.90;40.60;;;;;;4991058;28;20475;-58
2022/12/08 07:53:04;;;;;;;0.50;0.20;;;18.80;40.60;;;;;;4991245;28;20042;-60
2022/12/08 07:55:29;;;;;;;1.00;0.32;;;18.80;40.60;;;;;;4990726;28;20074;-61
2022/12/08 07:57:55;;;;;;;6.78;0.50;;;18.80;40.80;;;;;;4988975;28;20101;-60
2022/12/08 08:00:20;;;;;;;3.53;0.60;;;19.00;40.90;;;;;;4993768;28;20030;-61
2022/12/08 08:02:46;;;;;;;6.90;0.40;;;19.50;40.50;;;;;;4995783;28;20145;-61
2022/12/08 08:05:12;;;;;;;0.75;0.32;;;20.10;39.80;;;;;;4994321;28;20038;-60
2022/12/08 08:07:40;;;;;;;1.10;0.52;;;20.70;39.00;;;;;;4994160;28;20433;-61
2022/12/08 08:10:07;;;;;;;3.42;0.40;;;21.20;38.10;;;;;;4987325;28;20034;-61
2022/12/08 08:12:33;;;;;;;1.42;0.40;;;21.50;37.60;;;;;;4994520;28;20409;-61
2022/12/08 08:15:03;;;;;;;1.05;0.35;;;21.70;37.30;;;;;;4993694;28;20045;-60
2022/12/08 08:17:29;;;;;;;2.63;0.30;;;21.90;37.10;;;;;;4994235;28;20053;-60
2022/12/08 08:19:55;;;;;;;0.68;0.30;;;21.90;36.90;;;;;;4995457;28;20035;-60
2022/12/08 08:22:20;;;;;;;2.78;0.40;;;22.00;36.90;;;;;;4993599;28;20036;-60
2022/12/08 08:24:46;;;;;;;1.70;0.63;;;22.10;36.80;;;;;;4991353;28;20044;-60
2022/12/08 08:27:12;;;;;;;1.95;0.47;;;22.10;36.80;;;;;;4994425;28;20042;-60
2022/12/08 08:29:38;;;;;;;2.30;0.45;;;22.20;36.90;;;;;;4992187;28;20493;-61
2022/12/08 08:32:04;;;;;;;1.08;0.50;;;22.30;36.80;;;;;;4993835;28;20049;-60
2022/12/08 08:34:30;;;;;;;1.67;0.30;;;22.40;36.70;;;;;;4994641;28;20125;-60
2022/12/08 08:36:55;;;;;;;1.45;0.40;;;22.50;36.70;;;;;;4993058;28;20453;-60
2022/12/08 08:39:21;;;;;;;1.95;0.43;;;22.60;37.50;;;;;;4990422;28;20149;-63
2022/12/08 08:41:46;;;;;;;2.15;0.28;;;22.60;36.70;;;;;;4993023;28;20046;-60
2022/12/08 08:44:13;;;;;;;0.85;0.30;;;22.70;36.70;;;;;;4992663;28;20050;-59
2022/12/08 08:46:39;;;;;;;1.25;0.50;;;22.70;36.70;;;;;;4992796;28;20049;-60
2022/12/08 08:49:05;;;;;;;1.17;0.40;;;22.80;36.60;;;;;;4989330;28;20064;-59
2022/12/08 08:51:30;;;;;;;1.75;0.40;;;22.90;36.50;;;;;;4990425;28;20046;-59
2022/12/08 08:53:56;;;;;;;1.90;0.60;;;22.90;36.50;;;;;;4992043;28;20045;-59
2022/12/08 08:56:22;;;;;;;0.65;0.30;;;23.00;36.40;;;;;;4993906;28;20073;-59
2022/12/08 08:58:49;;;;;;;1.48;0.30;;;23.00;36.40;;;;;;4993324;28;20035;-60
2022/12/08 09:01:17;;;;;;;2.88;0.60;;;23.00;36.50;;;;;;4992472;28;20069;-60
2022/12/08 09:03:44;;;;;;;1.52;0.38;;;23.00;36.50;;;;;;4990824;28;20111;-61
2022/12/08 09:06:09;;;;;;;1.10;0.40;;;23.00;36.40;;;;;;4992128;28;20669;-61
2022/12/08 09:08:35;;;;;;;1.27;0.40;;;23.00;36.40;;;;;;4975465;28;20042;-60
2022/12/08 09:11:01;;;;;;;2.85;0.50;;;23.10;36.40;;;;;;4988727;28;20065;-61
2022/12/08 09:13:26;;;;;;;0.70;0.40;;;23.10;36.40;;;;;;4991713;28;20485;-61
2022/12/08 09:15:52;;;;;;;1.25;0.40;;;23.10;36.40;;;;;;4989251;28;20716;-61
2022/12/08 09:18:17;;;;;;;1.05;0.28;;;23.20;36.30;;;;;;4992814;28;20045;-61
2022/12/08 09:20:43;;;;;;;1.85;0.40;;;23.20;36.20;;;;;;4993227;28;20105;-60
2022/12/08 09:23:09;;;;;;;2.47;0.50;;;23.20;36.20;;;;;;4989994;28;20133;-60
2022/12/08 09:25:35;;;;;;;2.85;0.45;;;23.20;36.20;;;;;;4991348;28;20037;-60
2022/12/08 09:28:01;;;;;;;2.38;0.40;;;23.30;36.40;;;;;;4991079;28;20046;-60
2022/12/08 09:30:26;;;;;;;1.90;0.50;;;23.20;36.50;;;;;;4991030;28;20516;-61
2022/12/08 09:32:52;;;;;;;1.40;0.50;;;23.20;36.60;;;;;;4997422;28;20038;-61
2022/12/08 09:35:17;;;;;;;0.85;0.30;;;23.30;36.60;;;;;;4988461;28;20574;-61
2022/12/08 09:37:43;;;;;;;1.98;0.28;;;23.30;36.70;;;;;;4989922;28;20042;-60
2022/12/08 09:40:14;;;;;;;2.88;0.45;;;23.30;36.60;;;;;;4990484;28;20763;-61
2022/12/08 09:42:54;;;;;;;1.83;0.60;;;23.30;36.50;;;;;;4993413;28;20050;-59
2022/12/08 09:45:33;;;;;;;4.90;0.50;;;23.30;36.50;;;;;;4992726;28;20045;-60
2022/12/08 09:48:15;;;;;;;1.85;0.40;;;23.30;36.80;;;;;;4987022;28;20046;-60
2022/12/08 09:50:54;;;;;;;2.72;0.80;;;23.30;36.80;;;;;;4988561;28;20140;-61
2022/12/08 09:53:41;;;;;;;0.90;0.40;;;23.30;36.80;;;;;;4991883;28;22112;-60
2022/12/08 09:56:21;;;;;;;3.67;0.50;;;23.40;36.80;;;;;;4993047;28;20034;-61
2022/12/08 09:59:05;;;;;;;4.25;0.50;;;23.30;36.70;;;;;;4992766;28;20046;-61
2022/12/08 10:01:33;;;;;;;3.22;0.50;;;23.30;36.60;;;;;;4993853;28;20065;-60
2022/12/08 10:04:00;;;;;;;3.83;0.60;;;23.30;36.60;;;;;;4992099;28;20456;-60
2022/12/08 10:06:40;;;;;;;8.07;0.70;;;23.40;37.30;;;;;;4994013;28;20424;-60
2022/12/08 10:09:34;;;;;;;4.73;0.90;;;23.40;36.60;;;;;;4989778;28;20064;-60
2022/12/08 10:12:04;;;;;;;3.75;0.70;;;23.40;36.40;;;;;;4990687;28;20038;-61
2022/12/08 10:14:33;;;;;;;2.72;0.57;;;23.40;36.40;;;;;;4990376;28;20149;-61
2022/12/08 10:17:06;;;;;;;2.67;0.50;;;23.40;36.40;;;;;;4990860;28;20378;-60
2022/12/08 10:19:33;;;;;;;1.23;0.30;;;23.40;36.30;;;;;;4989475;28;20040;-60
2022/12/08 10:21:59;;;;;;;4.15;0.68;;;23.40;37.20;;;;;;4989459;28;20070;-61
2022/12/08 10:24:38;;;;;;;2.40;0.75;;;23.50;36.50;;;;;;4988688;28;20553;-61
2022/12/08 10:27:08;;;;;;;4.57;0.50;;;23.50;36.40;;;;;;4989907;28;20485;-62
2022/12/08 10:29:34;;;;;;;1.33;0.50;;;23.50;36.40;;;;;;4993144;28;20046;-61
2022/12/08 10:32:08;;;;;;;1.15;0.22;;;23.40;36.40;;;;;;4989819;28;20038;-61
2022/12/08 10:34:33;;;;;;;1.05;0.30;;;23.10;36.90;;;;;;4997053;28;20096;-61
2022/12/08 10:36:59;;;;;;;3.92;0.50;;;22.70;37.50;;;;;;4990497;28;20394;-61
2022/12/08 10:39:28;;;;;;;3.22;0.50;;;22.30;37.80;;;;;;4990421;28;20234;-61
2022/12/08 10:42:00;;;;;;;0.75;0.43;;;21.90;38.30;;;;;;4990311;28;20053;-61
2022/12/08 10:44:26;;;;;;;1.35;0.47;;;21.60;38.80;;;;;;4989845;28;20062;-61
2022/12/08 10:46:51;;;;;;;1.73;0.50;;;21.30;39.10;;;;;;4992839;28;20042;-61
2022/12/08 10:49:27;;;;;;;1.95;0.63;;;21.10;39.40;;;;;;4990358;28;20034;-62
2022/12/08 10:51:53;;;;;;;0.77;0.50;;;20.90;40.00;;;;;;4991337;28;20046;-61
2022/12/08 10:54:37;;;;;;;1.15;0.45;;;21.10;39.70;;;;;;4994341;28;20401;-61
2022/12/08 10:57:02;;;;;;;3.35;0.57;;;21.50;39.10;;;;;;4988272;28;20601;-62
2022/12/08 10:59:31;;;;;;;2.58;0.50;;;21.90;38.50;;;;;;4988737;28;20034;-60
2022/12/08 11:01:58;;;;;;;0.80;0.40;;;22.10;37.90;;;;;;4990520;28;20058;-60
2022/12/08 11:04:35;;;;;;;4.47;0.73;;;22.40;37.50;;;;;;4989411;28;20389;-60
2022/12/08 11:07:04;;;;;;;3.28;0.50;;;22.60;37.30;;;;;;4990574;28;20046;-62
2022/12/08 11:09:34;;;;;;;3.03;0.50;;;22.80;37.10;;;;;;4990436;28;20481;-61
2022/12/08 11:12:07;;;;;;;0.77;0.50;;;23.00;36.90;;;;;;4991256;28;20046;-61
2022/12/08 11:14:42;;;;;;;0.80;0.50;;;23.00;36.60;;;;;;4992783;28;20100;-61
2022/12/08 11:17:22;;;;;;;1.70;0.52;;;23.10;36.50;;;;;;4991774;28;20038;-61
2022/12/08 11:19:56;;;;;;;3.42;0.63;;;23.20;36.40;;;;;;4988833;28;20441;-60
2022/12/08 11:22:37;;;;;;;4.40;0.93;;;23.20;36.20;;;;;;4990428;28;20132;-61
2022/12/08 11:25:06;;;;;;;;;;;23.30;36.20;;;;;;4987045;28;20042;-60
2022/12/08 11:27:32;;;;;;;2.15;0.52;;;23.30;36.10;;;;;;4991870;28;20008;-61
2022/12/08 11:29:59;;;;;;;0.63;0.40;;;23.30;36.20;;;;;;4990787;28;20042;-60
2022/12/08 11:32:25;;;;;;;1.20;0.55;;;23.40;36.20;;;;;;4989120;28;20180;-60
2022/12/08 11:34:58;;;;;;;1.02;0.50;;;23.40;36.00;;;;;;4994983;28;20049;-58
2022/12/08 11:37:30;;;;;;;3.13;0.65;;;23.40;36.00;;;;;;4994944;28;20474;-60
2022/12/08 11:39:59;;;;;;;0.80;0.52;;;23.40;35.90;;;;;;4992990;28;20104;-60
2022/12/08 11:42:33;;;;;;;3.33;0.55;;;23.50;35.90;;;;;;4993968;28;20049;-60
2022/12/08 11:45:06;;;;;;;3.90;0.80;;;23.50;35.80;;;;;;4994069;28;20553;-61
2022/12/08 11:48:01;;;;;;;0.45;0.45;;;23.50;35.80;;;;;;4992574;28;20042;-61
2022/12/08 11:50:49;;;;;;;3.90;0.60;;;23.50;35.60;;;;;;4992577;28;20156;-61
2022/12/08 11:53:37;;;;;;;2.22;0.52;;;23.60;35.70;;;;;;4993778;28;20140;-61
2022/12/08 11:56:15;;;;;;;2.08;0.60;;;23.60;35.80;;;;;;4995204;28;20046;-60
2022/12/08 11:58:45;;;;;;;4.00;0.75;;;23.60;35.90;;;;;;4995139;28;20045;-60
2022/12/08 12:01:23;;;;;;;3.95;0.52;;;23.60;35.80;;;;;;4994770;28;20034;-60
2022/12/08 12:04:00;;;;;;;2.38;0.65;;;23.60;35.90;;;;;;4995664;28;20486;-61
2022/12/08 12:06:53;;;;;;;1.67;0.60;;;23.60;35.90;;;;;;4997463;28;20049;-60
2022/12/08 12:09:55;;;;;;;3.70;0.60;;;23.60;35.90;;;;;;4994667;28;20049;-62
2022/12/08 12:12:42;;;;;;;2.00;0.82;;;23.60;35.80;;;;;;4996626;28;20049;-59
2022/12/08 12:15:35;;;;;;;2.08;0.55;;;23.60;35.70;;;;;;4994004;28;20077;-61
2022/12/08 12:18:37;;;;;;;3.72;0.60;;;23.60;35.70;;;;;;4994843;28;20033;-59
2022/12/08 12:21:29;;;;;;;4.88;0.77;;;23.60;35.80;;;;;;4996575;28;20461;-61
2022/12/08 12:23:59;;;;;;;4.55;0.50;;;23.50;35.80;;;;;;4994838;28;20038;-62
2022/12/08 12:26:28;;;;;;;3.78;0.80;;;23.40;36.00;;;;;;4992341;28;20363;-60
2022/12/08 12:29:04;;;;;;;2.40;0.60;;;23.40;36.20;;;;;;4995410;28;20046;-62
2022/12/08 12:31:34;;;;;;;7.32;0.80;;;23.50;36.40;;;;;;4992075;28;20053;-62
2022/12/08 12:34:20;;;;;;;3.85;0.85;;;23.50;36.40;;;;;;4993224;28;20460;-61
2022/12/08 12:36:51;;;;;;;2.13;0.60;;;23.60;36.30;;;;;;4993306;28;20064;-61
2022/12/08 12:39:22;;;;;;;;;;;23.60;36.20;;;;;;4993896;28;20034;-61
2022/12/08 12:41:53;;;;;;;1.70;0.68;;;23.60;36.10;;;;;;4990953;28;20328;-62
2022/12/08 12:44:36;;;;;;;1.05;0.50;;;23.60;36.20;;;;;;4991808;28;20089;-62
2022/12/08 12:47:06;;;;;;;2.35;0.50;;;23.70;36.10;;;;;;4995088;28;20495;-60
2022/12/08 12:49:37;;;;;;;2.22;0.60;;;23.70;36.90;;;;;;4993235;28;20465;-61
2022/12/08 12:52:13;;;;;;;0.95;0.55;;;23.70;36.10;;;;;;4995165;28;20049;-62
2022/12/08 12:54:42;;;;;;;2.20;0.50;;;23.70;36.00;;;;;;4994033;28;20046;-61
2022/12/08 12:57:08;;;;;;;1.13;0.50;;;23.70;36.00;;;;;;4994694;28;20457;-61
2022/12/08 12:59:52;;;;;;;2.58;0.70;;;23.80;35.90;;;;;;4991590;28;20042;-62
2022/12/08 13:02:26;;;;;;;2.65;0.70;;;23.80;35.80;;;;;;4991446;28;20042;-61
2022/12/08 13:04:53;;;;;;;1.13;0.60;;;23.80;35.90;;;;;;4992878;28;20915;-61
2022/12/08 13:07:22;;;;;;;2.05;0.57;;;23.80;35.80;;;;;;4992349;28;20057;-61
2022/12/08 13:09:59;;;;;;;2.35;0.70;;;23.80;35.70;;;;;;4992987;28;20825;-61